This is the latest recevied weather packets stored in our database for station/object JA0BES-13. If no packets are shown the sender has not sent any weather packets the latest 10 day(s).
| Time | Temp. | Humidity | Pressure | Rain* | Wind** | Luminosity | Snow |
|---|---|---|---|---|---|---|---|
| 1788177958 | 24.44° C | 100% | 1014.4 hPa | 3.56 mm | - | - | - |
| 1788177358 | 24.44° C | 100% | 1014.2 hPa | 3.56 mm | - | - | - |
| 1788176757 | 24.44° C | 100% | 1014.4 hPa | 3.56 mm | - | - | - |
| 1788176157 | 24.44° C | 100% | 1014.3 hPa | 3.56 mm | - | - | - |
| 1788175556 | 24.44° C | 100% | 1014.5 hPa | 3.56 mm | - | - | - |
| 1788174956 | 24.44° C | 100% | 1014.4 hPa | 3.56 mm | - | - | - |
| 1788174356 | 24.44° C | 100% | 1014.4 hPa | 3.56 mm | - | - | - |
| 1788173756 | 24.44° C | 100% | 1014.3 hPa | 3.56 mm | - | - | - |
| 1788173155 | 24.44° C | 100% | 1014.3 hPa | 3.56 mm | - | - | - |
| 1788172555 | 24.44° C | 100% | 1014 hPa | 3.56 mm | - | - | - |
| 1788171954 | 24.44° C | 100% | 1013.9 hPa | 3.56 mm | - | - | - |
| 1788171354 | 24.44° C | 100% | 1013.7 hPa | 3.56 mm | - | - | - |
| 1788170754 | 25° C | 100% | 1013.6 hPa | 3.56 mm | - | - | - |
| 1788170159 | 25° C | 100% | 1013.4 hPa | 3.56 mm | - | - | - |
| 1788169553 | 25° C | 100% | 1013.2 hPa | 3.56 mm | - | - | - |
| 1788168953 | 25.56° C | 100% | 1013.1 hPa | 3.56 mm | - | - | - |
| 1788168352 | 26.11° C | 100% | 1013.1 hPa | 3.56 mm | - | - | - |
| 1788167752 | 26.11° C | 100% | 1013.1 hPa | 3.56 mm | - | - | - |
| 1788164750 | 26.67° C | 100% | 1013.1 hPa | 3.56 mm | - | - | - |
| 1788164150 | 26.67° C | 100% | 1013.3 hPa | 3.3 mm | - | - | - |
| 1788163549 | 26.67° C | 100% | 1013.1 hPa | 3.05 mm | - | - | - |
| 1788162949 | 26.67° C | 100% | 1013 hPa | 2.79 mm | - | - | - |
| 1788162349 | 27.78° C | 100% | 1012.4 hPa | 1.78 mm | - | - | - |
| 1788161749 | 29.44° C | 100% | 1012.7 hPa | 1.27 mm | - | - | - |
| 1788161148 | 30° C | 100% | 1012.1 hPa | 0.25 mm | - | - | - |
* Rain since midnight (hover to see other rain measurements)
** Current wind speed in m/s (hover to see current wind gust speed)